sensor_id;sensor_type;location;lat;lon;timestamp;P1;durP1;ratioP1;P2;durP2;ratioP2
21825;SDS011;11075;47.944;11.776;2023-02-28T00:00:37;5.13;;;3.13;;
21825;SDS011;11075;47.944;11.776;2023-02-28T00:03:04;5.63;;;3.10;;
21825;SDS011;11075;47.944;11.776;2023-02-28T00:05:33;6.23;;;3.70;;
21825;SDS011;11075;47.944;11.776;2023-02-28T00:08:00;5.87;;;3.03;;
21825;SDS011;11075;47.944;11.776;2023-02-28T00:10:28;7.53;;;3.20;;
21825;SDS011;11075;47.944;11.776;2023-02-28T00:13:01;4.77;;;3.50;;
21825;SDS011;11075;47.944;11.776;2023-02-28T00:15:31;4.63;;;3.23;;
21825;SDS011;11075;47.944;11.776;2023-02-28T00:17:58;5.60;;;3.07;;
21825;SDS011;11075;47.944;11.776;2023-02-28T00:20:25;6.53;;;3.67;;
21825;SDS011;11075;47.944;11.776;2023-02-28T00:22:53;7.47;;;3.27;;
21825;SDS011;11075;47.944;11.776;2023-02-28T00:25:22;5.37;;;3.27;;
21825;SDS011;11075;47.944;11.776;2023-02-28T00:27:50;5.93;;;3.07;;
21825;SDS011;11075;47.944;11.776;2023-02-28T00:30:21;5.90;;;2.97;;
21825;SDS011;11075;47.944;11.776;2023-02-28T00:32:50;6.50;;;3.57;;
21825;SDS011;11075;47.944;11.776;2023-02-28T00:35:17;7.77;;;4.03;;
21825;SDS011;11075;47.944;11.776;2023-02-28T00:37:44;7.17;;;4.30;;
21825;SDS011;11075;47.944;11.776;2023-02-28T00:40:11;6.97;;;3.70;;
21825;SDS011;11075;47.944;11.776;2023-02-28T00:42:38;10.57;;;4.13;;
21825;SDS011;11075;47.944;11.776;2023-02-28T00:45:06;11.70;;;5.20;;
21825;SDS011;11075;47.944;11.776;2023-02-28T00:47:37;12.00;;;5.90;;
21825;SDS011;11075;47.944;11.776;2023-02-28T00:50:04;10.03;;;5.80;;
21825;SDS011;11075;47.944;11.776;2023-02-28T00:52:32;11.90;;;4.37;;
21825;SDS011;11075;47.944;11.776;2023-02-28T00:54:59;12.43;;;6.33;;
21825;SDS011;11075;47.944;11.776;2023-02-28T00:57:26;7.30;;;4.87;;
21825;SDS011;11075;47.944;11.776;2023-02-28T00:59:53;8.77;;;5.20;;
21825;SDS011;11075;47.944;11.776;2023-02-28T01:02:23;7.43;;;4.67;;
21825;SDS011;11075;47.944;11.776;2023-02-28T01:04:51;6.87;;;3.73;;
21825;SDS011;11075;47.944;11.776;2023-02-28T01:07:18;5.03;;;3.43;;
21825;SDS011;11075;47.944;11.776;2023-02-28T01:09:45;4.30;;;2.53;;
21825;SDS011;11075;47.944;11.776;2023-02-28T01:12:12;6.63;;;3.93;;
21825;SDS011;11075;47.944;11.776;2023-02-28T01:14:39;6.03;;;3.50;;
21825;SDS011;11075;47.944;11.776;2023-02-28T01:17:06;4.30;;;3.10;;
21825;SDS011;11075;47.944;11.776;2023-02-28T01:19:33;7.23;;;3.63;;
21825;SDS011;11075;47.944;11.776;2023-02-28T01:22:05;5.83;;;3.90;;
21825;SDS011;11075;47.944;11.776;2023-02-28T01:24:33;5.17;;;3.37;;
21825;SDS011;11075;47.944;11.776;2023-02-28T01:27:00;6.27;;;3.60;;
21825;SDS011;11075;47.944;11.776;2023-02-28T01:29:27;4.47;;;3.23;;
21825;SDS011;11075;47.944;11.776;2023-02-28T01:31:54;5.60;;;3.20;;
21825;SDS011;11075;47.944;11.776;2023-02-28T01:34:21;3.63;;;3.13;;
21825;SDS011;11075;47.944;11.776;2023-02-28T01:36:48;5.10;;;3.10;;
21825;SDS011;11075;47.944;11.776;2023-02-28T01:39:14;5.33;;;3.90;;
21825;SDS011;11075;47.944;11.776;2023-02-28T01:41:41;8.33;;;4.10;;
21825;SDS011;11075;47.944;11.776;2023-02-28T01:47:13;5.70;;;3.27;;
21825;SDS011;11075;47.944;11.776;2023-02-28T01:49:41;6.33;;;3.77;;
21825;SDS011;11075;47.944;11.776;2023-02-28T01:52:08;7.07;;;3.70;;
21825;SDS011;11075;47.944;11.776;2023-02-28T01:54:45;6.57;;;3.60;;
21825;SDS011;11075;47.944;11.776;2023-02-28T01:57:18;5.47;;;3.93;;
21825;SDS011;11075;47.944;11.776;2023-02-28T01:59:51;7.57;;;3.87;;
21825;SDS011;11075;47.944;11.776;2023-02-28T02:02:26;5.53;;;3.53;;
21825;SDS011;11075;47.944;11.776;2023-02-28T02:04:57;4.97;;;3.50;;
21825;SDS011;11075;47.944;11.776;2023-02-28T02:07:32;6.53;;;3.77;;
21825;SDS011;11075;47.944;11.776;2023-02-28T02:10:04;8.17;;;4.10;;
21825;SDS011;11075;47.944;11.776;2023-02-28T02:18:52;6.13;;;3.40;;
21825;SDS011;11075;47.944;11.776;2023-02-28T02:27:18;7.77;;;3.57;;
21825;SDS011;11075;47.944;11.776;2023-02-28T02:30:02;7.37;;;3.77;;
21825;SDS011;11075;47.944;11.776;2023-02-28T02:33:02;7.20;;;4.53;;
21825;SDS011;11075;47.944;11.776;2023-02-28T02:44:31;7.37;;;4.40;;
21825;SDS011;11075;47.944;11.776;2023-02-28T02:47:08;9.07;;;4.87;;
21825;SDS011;11075;47.944;11.776;2023-02-28T02:49:38;7.40;;;4.40;;
21825;SDS011;11075;47.944;11.776;2023-02-28T02:52:11;10.90;;;4.73;;
21825;SDS011;11075;47.944;11.776;2023-02-28T02:54:41;8.20;;;4.70;;
21825;SDS011;11075;47.944;11.776;2023-02-28T02:57:17;7.80;;;4.90;;
21825;SDS011;11075;47.944;11.776;2023-02-28T02:59:49;10.13;;;4.67;;
21825;SDS011;11075;47.944;11.776;2023-02-28T03:02:19;9.13;;;4.67;;
21825;SDS011;11075;47.944;11.776;2023-02-28T03:04:51;9.23;;;5.20;;
21825;SDS011;11075;47.944;11.776;2023-02-28T03:07:20;10.17;;;5.13;;
21825;SDS011;11075;47.944;11.776;2023-02-28T03:09:51;9.50;;;5.20;;
21825;SDS011;11075;47.944;11.776;2023-02-28T03:12:20;7.60;;;4.93;;
21825;SDS011;11075;47.944;11.776;2023-02-28T03:22:46;21.70;;;7.90;;
21825;SDS011;11075;47.944;11.776;2023-02-28T03:27:53;15.17;;;6.63;;
21825;SDS011;11075;47.944;11.776;2023-02-28T03:33:34;16.77;;;7.07;;
21825;SDS011;11075;47.944;11.776;2023-02-28T03:36:15;24.13;;;8.90;;
21825;SDS011;11075;47.944;11.776;2023-02-28T03:38:48;13.77;;;7.10;;
21825;SDS011;11075;47.944;11.776;2023-02-28T03:41:21;14.17;;;6.40;;
21825;SDS011;11075;47.944;11.776;2023-02-28T03:43:52;10.63;;;5.77;;
21825;SDS011;11075;47.944;11.776;2023-02-28T03:46:25;12.17;;;6.03;;
21825;SDS011;11075;47.944;11.776;2023-02-28T03:49:11;14.27;;;6.73;;
21825;SDS011;11075;47.944;11.776;2023-02-28T03:51:48;11.53;;;5.90;;
21825;SDS011;11075;47.944;11.776;2023-02-28T03:54:27;12.33;;;6.27;;
21825;SDS011;11075;47.944;11.776;2023-02-28T03:57:20;10.07;;;6.13;;
21825;SDS011;11075;47.944;11.776;2023-02-28T03:59:56;8.07;;;4.80;;
21825;SDS011;11075;47.944;11.776;2023-02-28T04:02:27;7.53;;;4.53;;
21825;SDS011;11075;47.944;11.776;2023-02-28T04:04:54;11.67;;;5.63;;
21825;SDS011;11075;47.944;11.776;2023-02-28T04:07:20;11.37;;;5.73;;
21825;SDS011;11075;47.944;11.776;2023-02-28T04:09:47;15.33;;;6.40;;
21825;SDS011;11075;47.944;11.776;2023-02-28T04:12:14;15.90;;;6.43;;
21825;SDS011;11075;47.944;11.776;2023-02-28T04:14:41;9.57;;;5.53;;
21825;SDS011;11075;47.944;11.776;2023-02-28T04:17:08;10.17;;;5.70;;
21825;SDS011;11075;47.944;11.776;2023-02-28T04:19:35;14.10;;;6.37;;
21825;SDS011;11075;47.944;11.776;2023-02-28T04:22:02;14.30;;;6.77;;
21825;SDS011;11075;47.944;11.776;2023-02-28T04:24:29;14.07;;;6.60;;
21825;SDS011;11075;47.944;11.776;2023-02-28T04:26:56;10.67;;;5.47;;
21825;SDS011;11075;47.944;11.776;2023-02-28T04:29:28;14.53;;;6.73;;
21825;SDS011;11075;47.944;11.776;2023-02-28T04:31:59;12.93;;;6.47;;
21825;SDS011;11075;47.944;11.776;2023-02-28T04:34:27;14.83;;;6.50;;
21825;SDS011;11075;47.944;11.776;2023-02-28T04:36:56;13.57;;;7.17;;
21825;SDS011;11075;47.944;11.776;2023-02-28T04:39:39;12.87;;;6.93;;
21825;SDS011;11075;47.944;11.776;2023-02-28T04:42:06;15.43;;;7.63;;
21825;SDS011;11075;47.944;11.776;2023-02-28T04:44:33;16.30;;;8.47;;
21825;SDS011;11075;47.944;11.776;2023-02-28T04:47:00;19.27;;;8.07;;
21825;SDS011;11075;47.944;11.776;2023-02-28T04:49:27;13.23;;;7.50;;
21825;SDS011;11075;47.944;11.776;2023-02-28T04:51:54;15.57;;;7.40;;
21825;SDS011;11075;47.944;11.776;2023-02-28T04:54:22;13.53;;;6.77;;
21825;SDS011;11075;47.944;11.776;2023-02-28T04:56:49;13.97;;;7.60;;
21825;SDS011;11075;47.944;11.776;2023-02-28T04:59:16;13.10;;;7.20;;
21825;SDS011;11075;47.944;11.776;2023-02-28T05:01:47;16.70;;;8.33;;
21825;SDS011;11075;47.944;11.776;2023-02-28T05:04:15;14.77;;;7.97;;
21825;SDS011;11075;47.944;11.776;2023-02-28T05:06:42;15.67;;;7.77;;
21825;SDS011;11075;47.944;11.776;2023-02-28T05:09:09;21.10;;;9.37;;
21825;SDS011;11075;47.944;11.776;2023-02-28T05:11:40;19.80;;;9.77;;
21825;SDS011;11075;47.944;11.776;2023-02-28T05:14:09;20.57;;;9.80;;
21825;SDS011;11075;47.944;11.776;2023-02-28T05:16:38;17.77;;;9.37;;
21825;SDS011;11075;47.944;11.776;2023-02-28T05:19:05;24.93;;;10.70;;
21825;SDS011;11075;47.944;11.776;2023-02-28T05:21:33;21.17;;;9.87;;
21825;SDS011;11075;47.944;11.776;2023-02-28T05:24:04;21.43;;;10.23;;
21825;SDS011;11075;47.944;11.776;2023-02-28T05:26:39;19.67;;;10.70;;
21825;SDS011;11075;47.944;11.776;2023-02-28T05:29:08;24.17;;;12.47;;
21825;SDS011;11075;47.944;11.776;2023-02-28T05:31:35;22.90;;;11.57;;
21825;SDS011;11075;47.944;11.776;2023-02-28T05:34:03;19.67;;;10.17;;
21825;SDS011;11075;47.944;11.776;2023-02-28T05:36:32;21.60;;;10.37;;
21825;SDS011;11075;47.944;11.776;2023-02-28T05:38:59;23.77;;;12.17;;
21825;SDS011;11075;47.944;11.776;2023-02-28T05:41:26;22.77;;;11.17;;
21825;SDS011;11075;47.944;11.776;2023-02-28T05:43:54;19.67;;;10.60;;
21825;SDS011;11075;47.944;11.776;2023-02-28T05:46:21;21.67;;;10.60;;
21825;SDS011;11075;47.944;11.776;2023-02-28T05:48:48;23.43;;;10.30;;
21825;SDS011;11075;47.944;11.776;2023-02-28T05:51:16;19.43;;;11.03;;
21825;SDS011;11075;47.944;11.776;2023-02-28T05:53:43;21.57;;;10.83;;
21825;SDS011;11075;47.944;11.776;2023-02-28T05:56:10;21.00;;;10.67;;
21825;SDS011;11075;47.944;11.776;2023-02-28T05:58:38;18.90;;;10.00;;
21825;SDS011;11075;47.944;11.776;2023-02-28T06:01:21;19.13;;;10.20;;
21825;SDS011;11075;47.944;11.776;2023-02-28T06:03:49;26.03;;;11.00;;
21825;SDS011;11075;47.944;11.776;2023-02-28T06:06:15;3.70;;;2.40;;
21825;SDS011;11075;47.944;11.776;2023-02-28T06:08:43;19.43;;;9.53;;
21825;SDS011;11075;47.944;11.776;2023-02-28T06:11:11;23.23;;;12.63;;
21825;SDS011;11075;47.944;11.776;2023-02-28T06:13:38;22.93;;;12.23;;
21825;SDS011;11075;47.944;11.776;2023-02-28T06:16:05;24.47;;;11.03;;
21825;SDS011;11075;47.944;11.776;2023-02-28T06:18:33;23.73;;;11.40;;
21825;SDS011;11075;47.944;11.776;2023-02-28T06:21:00;23.27;;;11.67;;
21825;SDS011;11075;47.944;11.776;2023-02-28T06:23:27;20.23;;;10.50;;
21825;SDS011;11075;47.944;11.776;2023-02-28T06:25:53;20.87;;;10.67;;
21825;SDS011;11075;47.944;11.776;2023-02-28T06:28:25;18.47;;;9.93;;
21825;SDS011;11075;47.944;11.776;2023-02-28T06:30:52;20.30;;;10.80;;
21825;SDS011;11075;47.944;11.776;2023-02-28T06:33:19;19.83;;;11.07;;
21825;SDS011;11075;47.944;11.776;2023-02-28T06:35:52;22.57;;;11.43;;
21825;SDS011;11075;47.944;11.776;2023-02-28T06:38:19;22.50;;;11.47;;
21825;SDS011;11075;47.944;11.776;2023-02-28T06:40:52;23.23;;;10.97;;
21825;SDS011;11075;47.944;11.776;2023-02-28T06:43:23;17.97;;;9.93;;
21825;SDS011;11075;47.944;11.776;2023-02-28T06:45:54;22.63;;;11.27;;
21825;SDS011;11075;47.944;11.776;2023-02-28T06:48:22;21.03;;;10.73;;
21825;SDS011;11075;47.944;11.776;2023-02-28T06:50:49;22.13;;;11.87;;
21825;SDS011;11075;47.944;11.776;2023-02-28T06:53:16;21.07;;;11.77;;
21825;SDS011;11075;47.944;11.776;2023-02-28T06:55:43;22.70;;;11.73;;
21825;SDS011;11075;47.944;11.776;2023-02-28T06:58:10;19.87;;;11.47;;
21825;SDS011;11075;47.944;11.776;2023-02-28T07:00:49;20.00;;;9.30;;
21825;SDS011;11075;47.944;11.776;2023-02-28T07:03:19;22.37;;;11.93;;
21825;SDS011;11075;47.944;11.776;2023-02-28T07:05:46;17.13;;;9.43;;
21825;SDS011;11075;47.944;11.776;2023-02-28T07:08:13;33.27;;;15.40;;
21825;SDS011;11075;47.944;11.776;2023-02-28T07:10:40;16.93;;;9.23;;
21825;SDS011;11075;47.944;11.776;2023-02-28T07:13:07;16.87;;;8.07;;
21825;SDS011;11075;47.944;11.776;2023-02-28T07:15:36;30.40;;;13.90;;
21825;SDS011;11075;47.944;11.776;2023-02-28T07:18:07;33.93;;;15.87;;
21825;SDS011;11075;47.944;11.776;2023-02-28T07:20:34;34.43;;;15.03;;
21825;SDS011;11075;47.944;11.776;2023-02-28T07:23:01;29.63;;;12.57;;
21825;SDS011;11075;47.944;11.776;2023-02-28T07:25:28;35.23;;;15.00;;
21825;SDS011;11075;47.944;11.776;2023-02-28T07:27:56;28.77;;;12.07;;
21825;SDS011;11075;47.944;11.776;2023-02-28T07:30:23;25.47;;;12.30;;
21825;SDS011;11075;47.944;11.776;2023-02-28T07:32:50;25.77;;;12.93;;
21825;SDS011;11075;47.944;11.776;2023-02-28T07:35:16;25.13;;;12.47;;
21825;SDS011;11075;47.944;11.776;2023-02-28T07:37:44;28.43;;;14.60;;
21825;SDS011;11075;47.944;11.776;2023-02-28T07:40:11;21.97;;;12.17;;
21825;SDS011;11075;47.944;11.776;2023-02-28T07:42:39;22.50;;;10.90;;
21825;SDS011;11075;47.944;11.776;2023-02-28T07:45:08;27.03;;;13.63;;
21825;SDS011;11075;47.944;11.776;2023-02-28T07:47:38;20.90;;;10.67;;
21825;SDS011;11075;47.944;11.776;2023-02-28T07:50:06;21.37;;;9.40;;
21825;SDS011;11075;47.944;11.776;2023-02-28T07:52:35;26.13;;;12.53;;
21825;SDS011;11075;47.944;11.776;2023-02-28T07:55:03;10.33;;;5.37;;
21825;SDS011;11075;47.944;11.776;2023-02-28T07:57:31;27.37;;;13.10;;
21825;SDS011;11075;47.944;11.776;2023-02-28T08:00:04;14.90;;;7.57;;
21825;SDS011;11075;47.944;11.776;2023-02-28T08:02:36;19.07;;;9.67;;
21825;SDS011;11075;47.944;11.776;2023-02-28T08:05:04;15.83;;;7.97;;
21825;SDS011;11075;47.944;11.776;2023-02-28T08:07:31;23.43;;;9.47;;
21825;SDS011;11075;47.944;11.776;2023-02-28T08:09:59;26.07;;;13.07;;
21825;SDS011;11075;47.944;11.776;2023-02-28T08:12:26;16.97;;;8.80;;
21825;SDS011;11075;47.944;11.776;2023-02-28T08:14:53;20.93;;;11.77;;
21825;SDS011;11075;47.944;11.776;2023-02-28T08:17:20;24.00;;;12.53;;
21825;SDS011;11075;47.944;11.776;2023-02-28T08:19:47;28.77;;;12.97;;
21825;SDS011;11075;47.944;11.776;2023-02-28T08:22:13;23.93;;;13.80;;
21825;SDS011;11075;47.944;11.776;2023-02-28T08:24:41;26.77;;;13.37;;
21825;SDS011;11075;47.944;11.776;2023-02-28T08:27:10;25.43;;;12.57;;
21825;SDS011;11075;47.944;11.776;2023-02-28T08:29:37;24.90;;;12.83;;
21825;SDS011;11075;47.944;11.776;2023-02-28T08:32:06;30.73;;;14.43;;
21825;SDS011;11075;47.944;11.776;2023-02-28T08:34:49;23.17;;;12.33;;
21825;SDS011;11075;47.944;11.776;2023-02-28T08:37:16;30.47;;;15.27;;
21825;SDS011;11075;47.944;11.776;2023-02-28T08:39:43;29.03;;;14.43;;
21825;SDS011;11075;47.944;11.776;2023-02-28T08:42:10;27.47;;;12.67;;
21825;SDS011;11075;47.944;11.776;2023-02-28T08:44:37;23.80;;;13.70;;
21825;SDS011;11075;47.944;11.776;2023-02-28T08:47:04;22.17;;;10.80;;
21825;SDS011;11075;47.944;11.776;2023-02-28T08:49:31;26.37;;;13.93;;
21825;SDS011;11075;47.944;11.776;2023-02-28T08:51:58;16.00;;;6.73;;
21825;SDS011;11075;47.944;11.776;2023-02-28T08:54:25;25.60;;;13.77;;
21825;SDS011;11075;47.944;11.776;2023-02-28T08:56:52;30.07;;;13.83;;
21825;SDS011;11075;47.944;11.776;2023-02-28T08:59:19;24.47;;;14.40;;
21825;SDS011;11075;47.944;11.776;2023-02-28T09:01:46;26.47;;;14.33;;
21825;SDS011;11075;47.944;11.776;2023-02-28T09:04:13;28.67;;;15.17;;
21825;SDS011;11075;47.944;11.776;2023-02-28T09:06:45;30.13;;;14.20;;
21825;SDS011;11075;47.944;11.776;2023-02-28T09:09:12;26.70;;;15.03;;
21825;SDS011;11075;47.944;11.776;2023-02-28T09:11:39;23.43;;;12.80;;
21825;SDS011;11075;47.944;11.776;2023-02-28T09:14:06;26.80;;;13.23;;
21825;SDS011;11075;47.944;11.776;2023-02-28T09:16:33;19.30;;;10.87;;
21825;SDS011;11075;47.944;11.776;2023-02-28T09:19:00;28.77;;;13.43;;
21825;SDS011;11075;47.944;11.776;2023-02-28T09:21:28;23.53;;;11.57;;
21825;SDS011;11075;47.944;11.776;2023-02-28T09:23:55;14.10;;;6.93;;
21825;SDS011;11075;47.944;11.776;2023-02-28T09:26:24;20.47;;;10.20;;
21825;SDS011;11075;47.944;11.776;2023-02-28T09:29:00;25.53;;;12.60;;
21825;SDS011;11075;47.944;11.776;2023-02-28T09:31:28;23.13;;;13.37;;
21825;SDS011;11075;47.944;11.776;2023-02-28T09:33:56;27.20;;;13.47;;
21825;SDS011;11075;47.944;11.776;2023-02-28T09:36:25;25.63;;;13.07;;
21825;SDS011;11075;47.944;11.776;2023-02-28T09:39:09;24.63;;;14.10;;
21825;SDS011;11075;47.944;11.776;2023-02-28T09:41:38;29.77;;;13.53;;
21825;SDS011;11075;47.944;11.776;2023-02-28T09:44:16;27.17;;;14.20;;
21825;SDS011;11075;47.944;11.776;2023-02-28T09:47:05;25.13;;;13.17;;
21825;SDS011;11075;47.944;11.776;2023-02-28T09:49:45;25.63;;;13.47;;
21825;SDS011;11075;47.944;11.776;2023-02-28T09:52:18;24.00;;;12.97;;
21825;SDS011;11075;47.944;11.776;2023-02-28T09:54:47;24.37;;;12.67;;
21825;SDS011;11075;47.944;11.776;2023-02-28T09:57:17;13.07;;;7.50;;
21825;SDS011;11075;47.944;11.776;2023-02-28T10:05:29;19.50;;;10.83;;
21825;SDS011;11075;47.944;11.776;2023-02-28T10:08:05;25.67;;;13.03;;
21825;SDS011;11075;47.944;11.776;2023-02-28T10:13:06;27.47;;;13.53;;
21825;SDS011;11075;47.944;11.776;2023-02-28T10:15:44;21.73;;;12.77;;
21825;SDS011;11075;47.944;11.776;2023-02-28T10:18:16;27.47;;;14.50;;
21825;SDS011;11075;47.944;11.776;2023-02-28T10:20:50;27.47;;;13.73;;
21825;SDS011;11075;47.944;11.776;2023-02-28T10:23:28;23.23;;;12.63;;
21825;SDS011;11075;47.944;11.776;2023-02-28T10:26:05;13.53;;;8.07;;
21825;SDS011;11075;47.944;11.776;2023-02-28T10:28:39;24.73;;;10.93;;
21825;SDS011;11075;47.944;11.776;2023-02-28T10:31:08;19.00;;;8.60;;
21825;SDS011;11075;47.944;11.776;2023-02-28T10:33:41;20.00;;;9.77;;
21825;SDS011;11075;47.944;11.776;2023-02-28T10:36:08;26.63;;;13.83;;
21825;SDS011;11075;47.944;11.776;2023-02-28T10:38:41;33.20;;;15.67;;
21825;SDS011;11075;47.944;11.776;2023-02-28T10:41:10;17.73;;;8.83;;
21825;SDS011;11075;47.944;11.776;2023-02-28T10:43:39;18.47;;;11.10;;
21825;SDS011;11075;47.944;11.776;2023-02-28T10:48:42;19.87;;;9.90;;
21825;SDS011;11075;47.944;11.776;2023-02-28T10:51:12;24.27;;;12.50;;
21825;SDS011;11075;47.944;11.776;2023-02-28T10:53:51;24.57;;;11.90;;
21825;SDS011;11075;47.944;11.776;2023-02-28T10:56:28;22.17;;;12.20;;
21825;SDS011;11075;47.944;11.776;2023-02-28T11:01:39;23.20;;;12.97;;
21825;SDS011;11075;47.944;11.776;2023-02-28T11:07:00;16.57;;;9.47;;
21825;SDS011;11075;47.944;11.776;2023-02-28T11:09:34;25.27;;;12.17;;
21825;SDS011;11075;47.944;11.776;2023-02-28T11:12:08;15.70;;;8.67;;
21825;SDS011;11075;47.944;11.776;2023-02-28T11:14:55;17.83;;;9.40;;
21825;SDS011;11075;47.944;11.776;2023-02-28T11:17:27;20.43;;;11.13;;
21825;SDS011;11075;47.944;11.776;2023-02-28T11:19:58;14.13;;;8.00;;
21825;SDS011;11075;47.944;11.776;2023-02-28T11:22:31;15.80;;;8.43;;
21825;SDS011;11075;47.944;11.776;2023-02-28T11:25:06;22.90;;;13.00;;
21825;SDS011;11075;47.944;11.776;2023-02-28T11:30:03;22.87;;;14.00;;
21825;SDS011;11075;47.944;11.776;2023-02-28T11:32:49;21.97;;;12.83;;
21825;SDS011;11075;47.944;11.776;2023-02-28T11:35:33;22.57;;;12.83;;
21825;SDS011;11075;47.944;11.776;2023-02-28T11:38:07;22.27;;;12.63;;
21825;SDS011;11075;47.944;11.776;2023-02-28T11:40:43;19.33;;;11.30;;
21825;SDS011;11075;47.944;11.776;2023-02-28T11:46:17;24.07;;;13.93;;
21825;SDS011;11075;47.944;11.776;2023-02-28T12:00:25;19.77;;;12.13;;
21825;SDS011;11075;47.944;11.776;2023-02-28T12:03:01;19.10;;;11.97;;
21825;SDS011;11075;47.944;11.776;2023-02-28T12:05:46;20.47;;;12.23;;
21825;SDS011;11075;47.944;11.776;2023-02-28T12:08:43;23.33;;;12.57;;
21825;SDS011;11075;47.944;11.776;2023-02-28T12:16:38;21.30;;;10.93;;
21825;SDS011;11075;47.944;11.776;2023-02-28T12:19:25;16.00;;;10.60;;
21825;SDS011;11075;47.944;11.776;2023-02-28T12:27:19;16.63;;;9.20;;
21825;SDS011;11075;47.944;11.776;2023-02-28T12:32:23;20.20;;;10.47;;
21825;SDS011;11075;47.944;11.776;2023-02-28T12:35:10;17.10;;;10.13;;
21825;SDS011;11075;47.944;11.776;2023-02-28T12:40:11;20.00;;;11.83;;
21825;SDS011;11075;47.944;11.776;2023-02-28T12:43:16;21.37;;;11.10;;
21825;SDS011;11075;47.944;11.776;2023-02-28T12:45:46;21.83;;;12.20;;
21825;SDS011;11075;47.944;11.776;2023-02-28T12:48:29;18.50;;;11.87;;
21825;SDS011;11075;47.944;11.776;2023-02-28T12:51:04;15.73;;;9.80;;
21825;SDS011;11075;47.944;11.776;2023-02-28T12:56:30;22.03;;;12.77;;
21825;SDS011;11075;47.944;11.776;2023-02-28T12:59:04;23.23;;;12.17;;
21825;SDS011;11075;47.944;11.776;2023-02-28T13:07:06;18.80;;;12.33;;
21825;SDS011;11075;47.944;11.776;2023-02-28T13:09:54;23.87;;;12.20;;
21825;SDS011;11075;47.944;11.776;2023-02-28T13:12:26;20.20;;;12.50;;
21825;SDS011;11075;47.944;11.776;2023-02-28T13:17:38;27.07;;;15.10;;
21825;SDS011;11075;47.944;11.776;2023-02-28T13:20:18;21.73;;;13.23;;
21825;SDS011;11075;47.944;11.776;2023-02-28T13:22:48;31.80;;;15.20;;
21825;SDS011;11075;47.944;11.776;2023-02-28T13:28:00;21.03;;;13.40;;
21825;SDS011;11075;47.944;11.776;2023-02-28T13:38:48;25.10;;;15.43;;
21825;SDS011;11075;47.944;11.776;2023-02-28T13:44:11;19.50;;;12.80;;
21825;SDS011;11075;47.944;11.776;2023-02-28T13:49:25;25.60;;;12.97;;
21825;SDS011;11075;47.944;11.776;2023-02-28T14:03:00;20.97;;;12.93;;
21825;SDS011;11075;47.944;11.776;2023-02-28T14:06:09;14.30;;;9.67;;
21825;SDS011;11075;47.944;11.776;2023-02-28T14:11:35;19.73;;;13.27;;
21825;SDS011;11075;47.944;11.776;2023-02-28T14:14:04;22.87;;;14.70;;
21825;SDS011;11075;47.944;11.776;2023-02-28T14:19:13;21.03;;;13.90;;
21825;SDS011;11075;47.944;11.776;2023-02-28T14:27:14;24.77;;;13.90;;
21825;SDS011;11075;47.944;11.776;2023-02-28T14:32:44;21.30;;;12.20;;
21825;SDS011;11075;47.944;11.776;2023-02-28T14:35:16;25.93;;;14.33;;
21825;SDS011;11075;47.944;11.776;2023-02-28T14:38:05;18.03;;;10.73;;
21825;SDS011;11075;47.944;11.776;2023-02-28T14:40:40;32.57;;;16.60;;
21825;SDS011;11075;47.944;11.776;2023-02-28T14:43:18;33.93;;;19.57;;
21825;SDS011;11075;47.944;11.776;2023-02-28T14:45:59;31.17;;;14.80;;
21825;SDS011;11075;47.944;11.776;2023-02-28T14:48:30;37.97;;;20.23;;
21825;SDS011;11075;47.944;11.776;2023-02-28T14:50:58;28.57;;;15.87;;
21825;SDS011;11075;47.944;11.776;2023-02-28T14:53:28;26.60;;;15.07;;
21825;SDS011;11075;47.944;11.776;2023-02-28T14:55:56;23.77;;;14.67;;
21825;SDS011;11075;47.944;11.776;2023-02-28T14:58:28;18.80;;;10.80;;
21825;SDS011;11075;47.944;11.776;2023-02-28T15:01:01;26.87;;;15.43;;
21825;SDS011;11075;47.944;11.776;2023-02-28T15:06:12;22.77;;;13.63;;
21825;SDS011;11075;47.944;11.776;2023-02-28T15:08:44;24.30;;;13.27;;
21825;SDS011;11075;47.944;11.776;2023-02-28T15:11:15;26.27;;;15.27;;
21825;SDS011;11075;47.944;11.776;2023-02-28T15:13:54;16.87;;;10.83;;
21825;SDS011;11075;47.944;11.776;2023-02-28T15:19:05;23.20;;;13.80;;
21825;SDS011;11075;47.944;11.776;2023-02-28T15:21:42;22.33;;;13.27;;
21825;SDS011;11075;47.944;11.776;2023-02-28T15:24:15;28.00;;;15.00;;
21825;SDS011;11075;47.944;11.776;2023-02-28T15:26:51;27.70;;;15.07;;
21825;SDS011;11075;47.944;11.776;2023-02-28T15:29:22;24.57;;;15.67;;
21825;SDS011;11075;47.944;11.776;2023-02-28T15:34:40;32.03;;;16.60;;
21825;SDS011;11075;47.944;11.776;2023-02-28T15:42:42;31.63;;;19.13;;
21825;SDS011;11075;47.944;11.776;2023-02-28T15:48:04;55.57;;;28.13;;
21825;SDS011;11075;47.944;11.776;2023-02-28T15:50:40;73.50;;;33.63;;
21825;SDS011;11075;47.944;11.776;2023-02-28T15:53:17;29.97;;;17.90;;
21825;SDS011;11075;47.944;11.776;2023-02-28T15:55:59;26.10;;;16.37;;
21825;SDS011;11075;47.944;11.776;2023-02-28T15:58:32;31.63;;;15.53;;
21825;SDS011;11075;47.944;11.776;2023-02-28T16:01:06;54.87;;;29.20;;
21825;SDS011;11075;47.944;11.776;2023-02-28T16:03:43;31.70;;;16.67;;
21825;SDS011;11075;47.944;11.776;2023-02-28T16:08:48;30.63;;;15.03;;
21825;SDS011;11075;47.944;11.776;2023-02-28T16:11:17;31.30;;;17.37;;
21825;SDS011;11075;47.944;11.776;2023-02-28T16:13:47;25.43;;;15.27;;
21825;SDS011;11075;47.944;11.776;2023-02-28T16:16:18;24.87;;;14.47;;
21825;SDS011;11075;47.944;11.776;2023-02-28T16:18:47;24.73;;;14.20;;
21825;SDS011;11075;47.944;11.776;2023-02-28T16:21:15;24.47;;;14.27;;
21825;SDS011;11075;47.944;11.776;2023-02-28T16:23:42;23.87;;;14.43;;
21825;SDS011;11075;47.944;11.776;2023-02-28T16:26:12;31.37;;;14.60;;
21825;SDS011;11075;47.944;11.776;2023-02-28T16:28:47;30.10;;;13.77;;
21825;SDS011;11075;47.944;11.776;2023-02-28T16:31:14;27.73;;;14.57;;
21825;SDS011;11075;47.944;11.776;2023-02-28T16:33:43;21.73;;;14.00;;
21825;SDS011;11075;47.944;11.776;2023-02-28T16:36:15;28.80;;;15.47;;
21825;SDS011;11075;47.944;11.776;2023-02-28T16:38:44;27.37;;;16.30;;
21825;SDS011;11075;47.944;11.776;2023-02-28T16:41:12;25.63;;;15.20;;
21825;SDS011;11075;47.944;11.776;2023-02-28T16:43:46;30.27;;;15.60;;
21825;SDS011;11075;47.944;11.776;2023-02-28T16:46:15;27.70;;;16.30;;
21825;SDS011;11075;47.944;11.776;2023-02-28T16:48:44;28.43;;;15.67;;
21825;SDS011;11075;47.944;11.776;2023-02-28T16:51:12;27.10;;;15.23;;
21825;SDS011;11075;47.944;11.776;2023-02-28T16:53:40;27.23;;;14.97;;
21825;SDS011;11075;47.944;11.776;2023-02-28T16:56:13;29.03;;;16.33;;
21825;SDS011;11075;47.944;11.776;2023-02-28T16:58:49;28.13;;;16.03;;
21825;SDS011;11075;47.944;11.776;2023-02-28T17:01:17;31.23;;;16.30;;
21825;SDS011;11075;47.944;11.776;2023-02-28T17:03:48;33.83;;;16.63;;
21825;SDS011;11075;47.944;11.776;2023-02-28T17:06:17;32.23;;;16.13;;
21825;SDS011;11075;47.944;11.776;2023-02-28T17:08:51;29.80;;;16.90;;
21825;SDS011;11075;47.944;11.776;2023-02-28T17:11:18;29.80;;;16.77;;
21825;SDS011;11075;47.944;11.776;2023-02-28T17:13:45;28.20;;;15.53;;
21825;SDS011;11075;47.944;11.776;2023-02-28T17:16:15;32.00;;;16.93;;